Time;durP1;ratioP1;P1;durP2;ratioP2;P2;SDS_P1;SDS_P2;PMS_P1;PMS_P2;Temp;Humidity;BMP_temperature;BMP_pressure;BME280_temperature;BME280_humidity;BME280_pressure;Samples;Min_cycle;Max_cycle;Signal;HPM_P1;HPM_P2
2023/08/01 00:00:26;;;;;;;;;;;;;;;25.55;100.00;99739.72;5084472;28;19938;-59
2023/08/01 00:02:52;;;;;;;;;;;;;;;25.20;100.00;99748.72;5099072;28;19916;-57
2023/08/01 00:05:18;;;;;;;;;;;;;;;25.39;100.00;99750.34;5096695;28;19988;-58
2023/08/01 00:07:43;;;;;;;;;;;;;;;25.44;100.00;99750.19;5097241;28;19916;-57
2023/08/01 00:10:09;;;;;;;;;;;;;;;25.42;100.00;99739.53;5097844;28;19928;-56
2023/08/01 00:12:34;;;;;;;;;;;;;;;25.91;100.00;99747.56;5097615;28;19972;-56
2023/08/01 00:15:00;;;;;;;;;;;;;;;26.00;100.00;99741.25;5097619;28;19950;-57
2023/08/01 00:17:25;;;;;;;;;;;;;;;25.52;100.00;99727.50;5097603;28;19921;-58
2023/08/01 00:19:51;;;;;;;;;;;;;;;26.13;100.00;99740.25;5097776;28;19939;-58
2023/08/01 00:22:16;;;;;;;;;;;;;;;26.22;100.00;99740.25;5110724;28;19916;-59
2023/08/01 00:24:42;;;;;;;;;;;;;;;26.06;100.00;99728.97;5099314;28;19981;-55
2023/08/01 00:27:09;;;;;;;;;;;;;;;26.08;100.00;99729.47;5097201;28;19916;-55
2023/08/01 00:29:35;;;;;;;;;;;;;;;26.33;100.00;99719.56;5097675;28;19913;-56
2023/08/01 00:32:00;;;;;;;;;;;;;;;25.83;100.00;99720.97;5113367;28;19942;-58
2023/08/01 00:34:26;;;;;;;;;;;;;;;25.13;100.00;99729.22;5106523;28;19938;-57
2023/08/01 00:36:51;;;;;;;;;;;;;;;26.16;100.00;99733.28;5099064;28;19921;-58
2023/08/01 00:39:17;;;;;;;;;;;;;;;25.34;100.00;99732.16;5063130;28;19927;-57
2023/08/01 00:41:42;;;;;;;;;;;;;;;25.63;100.00;99726.03;5076848;28;19923;-58
2023/08/01 00:44:08;;;;;;;;;;;;;;;24.73;100.00;99719.19;5103082;28;19980;-58
2023/08/01 00:46:34;;;;;;;;;;;;;;;25.37;100.00;99709.59;5081038;28;19923;-54
2023/08/01 00:49:00;;;;;;;;;;;;;;;25.90;100.00;99704.88;5096959;28;19984;-57
2023/08/01 00:51:26;;;;;;;;;;;;;;;25.50;100.00;99696.91;5112786;28;19947;-56
2023/08/01 00:53:52;;;;;;;;;;;;;;;25.81;100.00;99693.13;5099662;28;19999;-57
2023/08/01 00:56:18;;;;;;;;;;;;;;;26.57;100.00;99696.22;5098056;28;19923;-56
2023/08/01 00:58:44;;;;;;;;;;;;;;;26.05;100.00;99694.50;5096765;28;19942;-56
2023/08/01 01:01:09;;;;;;;;;;;;;;;30.57;100.00;99703.84;5100530;28;19917;-58
2023/08/01 01:03:36;;;;;;;;;;;;;;;31.41;94.65;99703.66;5080559;28;19954;-55
2023/08/01 01:06:05;;;;;;;;;;;;;;;28.84;100.00;99693.44;5096386;28;19920;-55
2023/08/01 01:08:30;;;;;;;;;;;;;;;28.65;100.00;99702.28;5079044;28;19942;-56
2023/08/01 01:10:56;;;;;;;;;;;;;;;28.91;100.00;99701.09;5078679;28;19920;-58
2023/08/01 01:13:21;;;;;;;;;;;;;;;29.28;100.00;99706.47;5095717;28;19920;-55
2023/08/01 01:15:47;;;;;;;;;;;;;;;29.13;100.00;99693.47;5080316;28;19917;-56
2023/08/01 01:18:13;;;;;;;;;;;;;;;28.85;100.00;99694.25;5086536;28;19920;-57
2023/08/01 01:20:38;;;;;;;;;;;;;;;28.86;100.00;99699.38;5093771;28;19923;-54
2023/08/01 01:23:05;;;;;;;;;;;;;;;28.10;100.00;99694.22;5095913;28;19917;-56
2023/08/01 01:25:32;;;;;;;;;;;;;;;27.60;100.00;99694.16;5096892;28;19922;-57
2023/08/01 01:27:58;;;;;;;;;;;;;;;29.64;100.00;99705.88;5078223;28;19928;-54
2023/08/01 01:30:24;;;;;;;;;;;;;;;28.58;100.00;99693.78;5095759;28;20379;-56
2023/08/01 01:32:50;;;;;;;;;;;;;;;28.97;100.00;99701.66;5095838;28;19912;-57
2023/08/01 01:35:16;;;;;;;;;;;;;;;29.47;100.00;99697.59;5077813;28;19916;-57
2023/08/01 01:37:41;;;;;;;;;;;;;;;30.10;100.00;99695.28;5095883;28;19927;-57
2023/08/01 01:40:07;;;;;;;;;;;;;;;28.42;100.00;99705.50;5095428;28;19951;-57
2023/08/01 01:42:32;;;;;;;;;;;;;;;28.13;100.00;99692.75;5097307;28;19939;-56
2023/08/01 01:44:58;;;;;;;;;;;;;;;28.39;100.00;99695.19;5097243;28;19923;-57
2023/08/01 01:47:23;;;;;;;;;;;;;;;28.47;100.00;99691.50;5078119;28;19916;-54
2023/08/01 01:49:50;;;;;;;;;;;;;;;27.44;100.00;99684.91;5095483;28;19958;-54
2023/08/01 01:52:15;;;;;;;;;;;;;;;27.49;100.00;99681.97;5077923;28;19917;-55
2023/08/01 01:54:41;;;;;;;;;;;;;;;28.03;100.00;99688.50;5111664;28;19920;-55
2023/08/01 01:57:06;;;;;;;;;;;;;;;28.03;100.00;99683.00;5111696;28;19975;-56
2023/08/01 01:59:32;;;;;;;;;;;;;;;28.41;100.00;99679.16;5077760;28;19921;-57
2023/08/01 02:01:57;;;;;;;;;;;;;;;28.26;100.00;99685.34;5083979;28;19916;-57
2023/08/01 02:04:23;;;;;;;;;;;;;;;28.03;100.00;99689.31;5099558;28;19939;-55
2023/08/01 02:06:48;;;;;;;;;;;;;;;28.00;100.00;99689.97;5095344;28;19923;-52
2023/08/01 02:09:14;;;;;;;;;;;;;;;27.39;100.00;99676.88;5111139;28;19923;-57
2023/08/01 02:11:39;;;;;;;;;;;;;;;27.46;100.00;99672.47;5080484;28;19972;-59
2023/08/01 02:14:06;;;;;;;;;;;;;;;26.84;100.00;99679.59;5080347;28;19916;-57
2023/08/01 02:16:31;;;;;;;;;;;;;;;27.01;100.00;99681.41;5111012;28;19970;-57
2023/08/01 02:18:57;;;;;;;;;;;;;;;28.33;100.00;99672.63;5077680;28;19917;-57
2023/08/01 02:21:22;;;;;;;;;;;;;;;29.45;100.00;99682.56;5095041;28;19990;-57
2023/08/01 02:23:48;;;;;;;;;;;;;;;29.07;100.00;99679.16;5095002;28;19916;-57
2023/08/01 02:26:14;;;;;;;;;;;;;;;28.88;100.00;99677.03;5083262;28;19917;-57
2023/08/01 02:28:39;;;;;;;;;;;;;;;29.05;100.00;99676.72;5094108;28;19923;-56
2023/08/01 02:31:05;;;;;;;;;;;;;;;28.48;100.00;99667.56;5095230;28;19947;-54
2023/08/01 02:33:30;;;;;;;;;;;;;;;28.89;100.00;99673.13;5107275;28;19924;-56
2023/08/01 02:35:56;;;;;;;;;;;;;;;28.06;100.00;99676.81;5079095;28;20303;-57
2023/08/01 02:38:21;;;;;;;;;;;;;;;27.86;100.00;99673.81;5110721;28;19920;-55
2023/08/01 02:40:47;;;;;;;;;;;;;;;27.84;100.00;99670.63;5077433;28;19921;-56
2023/08/01 02:43:12;;;;;;;;;;;;;;;27.13;100.00;99678.75;5077368;28;19994;-56
2023/08/01 02:45:38;;;;;;;;;;;;;;;28.26;100.00;99675.16;5103336;28;19923;-57
2023/08/01 02:48:04;;;;;;;;;;;;;;;27.95;100.00;99678.44;5077397;28;19931;-58
2023/08/01 02:50:29;;;;;;;;;;;;;;;28.29;100.00;99676.41;5111019;28;19927;-54
2023/08/01 02:52:55;;;;;;;;;;;;;;;29.19;100.00;99675.53;5096138;28;19916;-56
2023/08/01 02:55:20;;;;;;;;;;;;;;;27.83;100.00;99685.50;5110740;28;19964;-57
2023/08/01 02:57:46;;;;;;;;;;;;;;;28.19;100.00;99677.66;5094875;28;19921;-55
2023/08/01 03:00:11;;;;;;;;;;;;;;;28.47;100.00;99677.78;5110689;28;19921;-57
2023/08/01 03:02:38;;;;;;;;;;;;;;;29.74;100.00;99684.13;5099276;28;19916;-56
2023/08/01 03:05:05;;;;;;;;;;;;;;;30.08;100.00;99686.56;5115802;28;19928;-55
2023/08/01 03:07:30;;;;;;;;;;;;;;;30.75;89.89;99680.22;5094523;28;19912;-57
2023/08/01 03:09:56;;;;;;;;;;;;;;;32.51;77.56;99688.53;5093160;28;19974;-57
2023/08/01 03:12:21;;;;;;;;;;;;;;;29.11;100.00;99687.50;5079516;28;19916;-56
2023/08/01 03:14:47;;;;;;;;;;;;;;;29.87;100.00;99681.28;5115771;28;19916;-58
2023/08/01 03:17:13;;;;;;;;;;;;;;;29.59;100.00;99682.94;5096025;28;19921;-57
2023/08/01 03:19:39;;;;;;;;;;;;;;;30.05;94.08;99692.78;5094799;28;19917;-58
2023/08/01 03:22:04;;;;;;;;;;;;;;;29.26;100.00;99685.97;5081238;28;19921;-56
2023/08/01 03:24:30;;;;;;;;;;;;;;;29.74;100.00;99683.31;5121405;28;19959;-55
2023/08/01 03:26:55;;;;;;;;;;;;;;;30.04;94.90;99694.72;5106501;28;19923;-54
2023/08/01 03:29:21;;;;;;;;;;;;;;;29.16;100.00;99682.53;5076829;28;19947;-56
2023/08/01 03:31:47;;;;;;;;;;;;;;;29.69;100.00;99686.34;5094386;28;19916;-55
2023/08/01 03:34:12;;;;;;;;;;;;;;;29.32;100.00;99690.06;5084000;28;19938;-56
2023/08/01 03:36:38;;;;;;;;;;;;;;;29.59;100.00;99679.38;5103145;28;19916;-58
2023/08/01 03:39:04;;;;;;;;;;;;;;;29.85;99.42;99681.66;5076874;28;19917;-53
2023/08/01 03:41:31;;;;;;;;;;;;;;;30.26;95.13;99684.22;5097274;28;20442;-57
2023/08/01 03:43:56;;;;;;;;;;;;;;;29.45;99.76;99682.56;5118225;28;19916;-57
2023/08/01 03:46:21;;;;;;;;;;;;;;;30.99;86.56;99694.91;5103226;28;19995;-57
2023/08/01 03:48:47;;;;;;;;;;;;;;;30.26;89.91;99691.72;5097900;28;19917;-56
2023/08/01 03:51:17;;;;;;;;;;;;;;;29.73;96.81;99698.25;5097762;28;19920;-57
2023/08/01 03:53:46;;;;;;;;;;;;;;;29.16;100.00;99690.00;5097404;28;20478;-57
2023/08/01 03:56:11;;;;;;;;;;;;;;;29.20;100.00;99688.16;5097630;28;19920;-57
2023/08/01 03:58:37;;;;;;;;;;;;;;;28.40;100.00;99691.31;5114031;28;19920;-57
2023/08/01 04:01:02;;;;;;;;;;;;;;;28.66;100.00;99692.88;5084258;28;19917;-56
2023/08/01 04:03:28;;;;;;;;;;;;;;;27.88;100.00;99682.53;5105033;28;19916;-56
2023/08/01 04:05:54;;;;;;;;;;;;;;;27.88;100.00;99685.28;5085788;28;19924;-55
2023/08/01 04:08:19;;;;;;;;;;;;;;;28.48;100.00;99686.81;5090210;28;19916;-55
2023/08/01 04:10:45;;;;;;;;;;;;;;;28.81;100.00;99687.81;5097517;28;19947;-56
2023/08/01 04:13:11;;;;;;;;;;;;;;;28.35;100.00;99694.25;5097970;28;19924;-55
2023/08/01 04:15:36;;;;;;;;;;;;;;;29.37;100.00;99695.31;5100803;28;19916;-54
2023/08/01 04:18:02;;;;;;;;;;;;;;;29.47;100.00;99689.34;5097373;28;19955;-57
2023/08/01 04:20:27;;;;;;;;;;;;;;;28.33;100.00;99691.88;5097237;28;19947;-55
2023/08/01 04:22:53;;;;;;;;;;;;;;;29.41;100.00;99685.25;5098438;28;19916;-57
2023/08/01 04:25:18;;;;;;;;;;;;;;;29.10;100.00;99694.16;5100733;28;19925;-58
2023/08/01 04:27:44;;;;;;;;;;;;;;;29.21;100.00;99699.97;5097554;28;19959;-56
2023/08/01 04:30:10;;;;;;;;;;;;;;;29.49;100.00;99691.72;5097237;28;19989;-56
2023/08/01 04:32:36;;;;;;;;;;;;;;;29.26;100.00;99692.25;5097518;28;19938;-54
2023/08/01 04:35:01;;;;;;;;;;;;;;;29.15;100.00;99689.19;5107787;28;19924;-53
2023/08/01 04:37:27;;;;;;;;;;;;;;;28.41;100.00;99684.66;5096976;28;19921;-56
2023/08/01 04:39:52;;;;;;;;;;;;;;;28.48;100.00;99687.63;5096889;28;19920;-56
2023/08/01 04:42:17;;;;;;;;;;;;;;;29.43;100.00;99684.88;5079209;28;19916;-53
2023/08/01 04:44:43;;;;;;;;;;;;;;;29.73;99.52;99687.22;5097026;28;19929;-55
2023/08/01 04:47:09;;;;;;;;;;;;;;;26.87;100.00;99690.75;5105994;28;19928;-56
2023/08/01 04:49:35;;;;;;;;;;;;;;;26.01;100.00;99677.94;5096992;28;19920;-58
2023/08/01 04:52:00;;;;;;;;;;;;;;;25.76;100.00;99674.13;5078464;28;19916;-54
2023/08/01 04:54:26;;;;;;;;;;;;;;;26.24;100.00;99669.47;5097491;28;19923;-55
2023/08/01 04:56:51;;;;;;;;;;;;;;;30.19;100.00;99687.59;5095229;28;20370;-53
2023/08/01 04:59:17;;;;;;;;;;;;;;;30.81;93.93;99688.22;5096476;28;19917;-57
2023/08/01 05:01:42;;;;;;;;;;;;;;;30.25;97.60;99690.09;5092068;28;19935;-57
2023/08/01 05:04:08;;;;;;;;;;;;;;;30.27;95.93;99693.31;5093056;28;19920;-56
2023/08/01 05:06:33;;;;;;;;;;;;;;;30.55;91.84;99697.88;5078582;28;19923;-54
2023/08/01 05:09:00;;;;;;;;;;;;;;;29.17;100.00;99699.88;5088442;28;19931;-57
2023/08/01 05:11:26;;;;;;;;;;;;;;;27.65;100.00;99689.56;5091835;28;19924;-54
2023/08/01 05:13:51;;;;;;;;;;;;;;;29.49;100.00;99694.47;5097666;28;20434;-55
2023/08/01 05:16:16;;;;;;;;;;;;;;;29.84;97.24;99698.50;5096080;28;19916;-54
2023/08/01 05:18:42;;;;;;;;;;;;;;;29.55;100.00;99695.03;5100103;28;19996;-58
2023/08/01 05:21:07;;;;;;;;;;;;;;;30.34;96.65;99696.22;5088014;28;19921;-56
2023/08/01 05:23:32;;;;;;;;;;;;;;;30.81;90.18;99705.59;5090722;28;19943;-56
2023/08/01 05:25:58;;;;;;;;;;;;;;;30.39;90.60;99706.97;5107322;28;19920;-57
2023/08/01 05:28:24;;;;;;;;;;;;;;;25.24;100.00;99699.63;5098833;28;19941;-56
2023/08/01 05:30:49;;;;;;;;;;;;;;;30.33;99.14;99705.66;5089298;28;19992;-57
2023/08/01 05:33:15;;;;;;;;;;;;;;;30.60;92.02;99705.88;5090200;28;19916;-59
2023/08/01 05:35:40;;;;;;;;;;;;;;;31.01;87.11;99702.81;5090262;28;19917;-57
2023/08/01 05:38:06;;;;;;;;;;;;;;;30.36;95.68;99699.41;5090093;28;19921;-56
2023/08/01 05:40:31;;;;;;;;;;;;;;;30.58;91.34;99713.72;5091347;28;19951;-56
2023/08/01 05:42:57;;;;;;;;;;;;;;;31.12;87.39;99708.56;5094858;28;19956;-55
2023/08/01 05:45:22;;;;;;;;;;;;;;;31.56;82.31;99715.78;5102195;28;19917;-56
2023/08/01 05:47:48;;;;;;;;;;;;;;;31.70;82.35;99726.28;5086327;28;19916;-54
2023/08/01 05:50:13;;;;;;;;;;;;;;;30.37;91.12;99714.81;5093323;28;19928;-56
2023/08/01 05:52:39;;;;;;;;;;;;;;;30.27;95.22;99718.13;5086137;28;19923;-57
2023/08/01 05:55:05;;;;;;;;;;;;;;;27.66;100.00;99711.22;5094543;28;19916;-56
2023/08/01 05:57:31;;;;;;;;;;;;;;;26.44;100.00;99711.75;5096415;28;19931;-57
2023/08/01 05:59:56;;;;;;;;;;;;;;;25.15;100.00;99699.66;5098020;28;19917;-54
2023/08/01 06:02:22;;;;;;;;;;;;;;;29.79;100.00;99720.81;5080978;28;19927;-55
2023/08/01 06:04:47;;;;;;;;;;;;;;;29.59;100.00;99717.94;5096287;28;19976;-56
2023/08/01 06:07:13;;;;;;;;;;;;;;;30.14;95.61;99707.19;5090736;28;19916;-55
2023/08/01 06:09:38;;;;;;;;;;;;;;;29.98;97.69;99717.38;5098121;28;19992;-54
2023/08/01 06:12:04;;;;;;;;;;;;;;;31.80;85.49;99739.50;5088235;28;19917;-57
2023/08/01 06:14:29;;;;;;;;;;;;;;;25.97;100.00;99720.00;5094931;28;19940;-57
2023/08/01 06:16:55;;;;;;;;;;;;;;;25.49;100.00;99728.13;5077112;28;19924;-56
2023/08/01 06:19:21;;;;;;;;;;;;;;;29.55;100.00;99731.63;5094560;28;19955;-55
2023/08/01 06:21:46;;;;;;;;;;;;;;;29.88;99.74;99730.53;5093913;28;19927;-56
2023/08/01 06:24:11;;;;;;;;;;;;;;;30.09;93.57;99743.28;5094645;28;19920;-57
2023/08/01 06:26:37;;;;;;;;;;;;;;;29.86;100.00;99738.34;5100234;28;19947;-54
2023/08/01 06:29:03;;;;;;;;;;;;;;;30.49;91.04;99738.72;5094554;28;19917;-53
2023/08/01 06:31:28;;;;;;;;;;;;;;;30.15;95.19;99741.84;5082654;28;19921;-57
2023/08/01 06:33:54;;;;;;;;;;;;;;;29.32;100.00;99740.41;5094435;28;20023;-56
2023/08/01 06:36:20;;;;;;;;;;;;;;;29.32;100.00;99737.66;5093741;28;19933;-56
2023/08/01 06:38:46;;;;;;;;;;;;;;;29.42;99.33;99746.59;5100840;28;19921;-56
2023/08/01 06:41:12;;;;;;;;;;;;;;;29.57;97.35;99754.13;5084660;28;19920;-56
2023/08/01 06:43:38;;;;;;;;;;;;;;;29.45;98.62;99743.97;5093682;28;19923;-57
2023/08/01 06:46:04;;;;;;;;;;;;;;;31.36;86.34;99757.22;5092873;28;19948;-56
2023/08/01 06:48:31;;;;;;;;;;;;;;;29.67;100.00;99754.75;5097635;28;19917;-56
2023/08/01 06:50:56;;;;;;;;;;;;;;;30.36;89.78;99757.31;5086822;28;19985;-52
2023/08/01 06:53:22;;;;;;;;;;;;;;;31.27;86.42;99764.94;5086109;28;19920;-58
2023/08/01 06:55:48;;;;;;;;;;;;;;;30.72;83.84;99752.69;5076925;28;19952;-55
2023/08/01 06:58:13;;;;;;;;;;;;;;;31.40;79.25;99771.88;5094667;28;20038;-56
2023/08/01 07:00:39;;;;;;;;;;;;;;;30.83;81.61;99757.63;5089239;28;19916;-57
2023/08/01 07:03:04;;;;;;;;;;;;;;;31.27;81.55;99768.47;5094175;28;19975;-55
2023/08/01 07:05:30;;;;;;;;;;;;;;;30.92;82.86;99768.47;5094219;28;19917;-55
2023/08/01 07:07:57;;;;;;;;;;;;;;;31.43;81.18;99767.63;5094783;28;19916;-52
2023/08/01 07:10:23;;;;;;;;;;;;;;;31.80;79.04;99764.38;5091051;28;19943;-56
2023/08/01 07:12:49;;;;;;;;;;;;;;;31.42;77.78;99766.00;5091665;28;19988;-56
2023/08/01 07:15:14;;;;;;;;;;;;;;;31.47;80.20;99763.75;5077269;28;19924;-57
2023/08/01 07:17:40;;;;;;;;;;;;;;;31.87;75.41;99761.78;5098014;28;19920;-56
2023/08/01 07:20:05;;;;;;;;;;;;;;;32.73;72.40;99764.34;5097259;28;19917;-56
2023/08/01 07:22:31;;;;;;;;;;;;;;;30.91;74.69;99759.41;5091720;28;19930;-56
2023/08/01 07:24:56;;;;;;;;;;;;;;;31.00;78.12;99751.72;5099334;28;19944;-54
2023/08/01 07:27:22;;;;;;;;;;;;;;;31.82;72.90;99761.25;5097801;28;19947;-55
2023/08/01 07:29:47;;;;;;;;;;;;;;;30.72;75.83;99758.22;5102211;28;19923;-53
2023/08/01 07:32:13;;;;;;;;;;;;;;;31.51;74.33;99758.28;5092767;28;19920;-58
2023/08/01 07:34:39;;;;;;;;;;;;;;;31.68;72.17;99779.13;5089635;28;19955;-55
2023/08/01 07:37:04;;;;;;;;;;;;;;;31.48;72.17;99764.56;5095687;28;19920;-54
2023/08/01 07:39:30;;;;;;;;;;;;;;;32.03;71.12;99775.47;5100480;28;19916;-56
2023/08/01 07:41:56;;;;;;;;;;;;;;;32.69;68.37;99766.25;5095029;28;19923;-56
2023/08/01 07:44:21;;;;;;;;;;;;;;;31.71;69.11;99777.63;5095106;28;19924;-56
2023/08/01 07:46:46;;;;;;;;;;;;;;;32.74;64.25;99765.94;5095263;28;19981;-57
2023/08/01 07:49:12;;;;;;;;;;;;;;;33.35;60.46;99764.38;5097499;28;19917;-56
2023/08/01 07:51:38;;;;;;;;;;;;;;;33.09;60.39;99764.06;5097617;28;19916;-57
2023/08/01 07:54:03;;;;;;;;;;;;;;;32.84;62.54;99758.97;5094988;28;19916;-58
2023/08/01 07:56:28;;;;;;;;;;;;;;;32.38;61.77;99770.94;5097354;28;20016;-57
2023/08/01 07:58:53;;;;;;;;;;;;;;;33.22;60.06;99772.16;5097171;28;19936;-56
2023/08/01 08:01:19;;;;;;;;;;;;;;;31.51;62.24;99785.91;5097256;28;19923;-53
2023/08/01 08:03:44;;;;;;;;;;;;;;;31.40;63.36;99782.94;5097907;28;19923;-54
2023/08/01 08:06:10;;;;;;;;;;;;;;;31.17;66.98;99780.09;5100942;28;19925;-54
2023/08/01 08:08:36;;;;;;;;;;;;;;;31.18;70.22;99784.44;5099840;28;19922;-54
2023/08/01 08:11:02;;;;;;;;;;;;;;;31.05;67.87;99784.56;5102271;28;19919;-56
2023/08/01 08:13:27;;;;;;;;;;;;;;;32.43;64.08;99786.44;5100493;28;19922;-57
2023/08/01 08:15:56;;;;;;;;;;;;;;;31.16;71.41;99784.78;5100765;28;19920;-57
2023/08/01 08:18:22;;;;;;;;;;;;;;;31.29;71.50;99785.47;5097740;28;19991;-58
2023/08/01 08:20:47;;;;;;;;;;;;;;;31.55;70.71;99783.25;5096942;28;19925;-57
2023/08/01 08:23:13;;;;;;;;;;;;;;;30.38;75.23;99777.06;5096925;28;19920;-56
2023/08/01 08:25:40;;;;;;;;;;;;;;;30.36;75.48;99765.59;5099411;28;19923;-59
2023/08/01 08:28:05;;;;;;;;;;;;;;;30.94;72.72;99771.69;5097348;28;19916;-58
2023/08/01 08:30:31;;;;;;;;;;;;;;;31.11;70.59;99771.28;5090574;28;20174;-59
2023/08/01 08:32:57;;;;;;;;;;;;;;;31.58;64.62;99779.75;5092015;28;19948;-57
2023/08/01 08:35:22;;;;;;;;;;;;;;;31.42;65.91;99779.81;5099555;28;19920;-58
2023/08/01 08:37:48;;;;;;;;;;;;;;;31.52;65.17;99782.00;5098025;28;20432;-57
2023/08/01 08:40:14;;;;;;;;;;;;;;;32.81;59.96;99783.84;5099444;28;19916;-59
2023/08/01 08:42:39;;;;;;;;;;;;;;;31.98;60.97;99786.84;5096870;28;19924;-58
2023/08/01 08:45:06;;;;;;;;;;;;;;;31.85;61.33;99780.69;5096657;28;19912;-57
2023/08/01 08:47:35;;;;;;;;;;;;;;;33.28;59.30;99782.53;5100779;28;19962;-59
2023/08/01 08:50:01;;;;;;;;;;;;;;;34.07;53.94;99792.13;5096778;28;19912;-57
2023/08/01 08:52:26;;;;;;;;;;;;;;;31.85;58.04;99791.75;5094223;28;19916;-53
2023/08/01 08:54:52;;;;;;;;;;;;;;;31.77;59.89;99784.47;5102118;28;19931;-59
2023/08/01 08:57:18;;;;;;;;;;;;;;;33.48;55.00;99790.72;5096409;28;19932;-55
2023/08/01 08:59:44;;;;;;;;;;;;;;;32.36;56.91;99784.34;5099407;28;19942;-59
2023/08/01 09:02:10;;;;;;;;;;;;;;;32.40;56.85;99790.72;5096251;28;19920;-56
2023/08/01 09:04:35;;;;;;;;;;;;;;;32.38;56.56;99804.13;5096552;28;19988;-56
2023/08/01 09:07:07;;;;;;;;;;;;;;;32.56;57.68;99796.13;5095835;28;19916;-57
2023/08/01 09:09:32;;;;;;;;;;;;;;;33.72;54.78;99803.22;5095864;28;19920;-58
2023/08/01 09:11:58;;;;;;;;;;;;;;;32.14;56.96;99832.91;5102255;28;19984;-57
2023/08/01 09:14:24;;;;;;;;;;;;;;;33.01;53.20;99796.41;5096196;28;19984;-57
2023/08/01 09:16:49;;;;;;;;;;;;;;;29.44;65.29;99796.63;5103324;28;19923;-57
2023/08/01 09:19:18;;;;;;;;;;;;;;;28.15;79.39;99786.63;5104402;28;19931;-55
2023/08/01 09:21:44;;;;;;;;;;;;;;;28.39;79.18;99782.34;5098335;28;19952;-55
2023/08/01 09:24:10;;;;;;;;;;;;;;;28.03;83.52;99798.41;5100591;28;19923;-56
2023/08/01 09:26:36;;;;;;;;;;;;;;;27.88;84.26;99797.13;5096245;28;19943;-59
2023/08/01 09:29:02;;;;;;;;;;;;;;;27.54;89.93;99799.84;5096005;28;19924;-59
2023/08/01 09:31:31;;;;;;;;;;;;;;;27.52;90.35;99801.31;5095924;28;19917;-55
2023/08/01 09:33:56;;;;;;;;;;;;;;;28.14;91.82;99802.34;5094865;28;20035;-55
2023/08/01 09:36:22;;;;;;;;;;;;;;;27.66;91.89;99801.03;5095315;28;19920;-57
2023/08/01 09:38:49;;;;;;;;;;;;;;;27.56;88.61;99807.72;5094196;28;19943;-57
2023/08/01 09:41:18;;;;;;;;;;;;;;;27.12;93.50;99805.28;5094524;28;19913;-57
2023/08/01 09:43:45;;;;;;;;;;;;;;;27.17;91.91;99816.06;5095358;28;19912;-57
2023/08/01 09:46:11;;;;;;;;;;;;;;;27.86;86.67;99833.16;5094900;28;19922;-57
2023/08/01 09:48:37;;;;;;;;;;;;;;;28.67;81.71;99821.00;5095124;28;19924;-56
2023/08/01 09:51:13;;;;;;;;;;;;;;;29.01;82.55;99829.94;5108024;28;19916;-56
2023/08/01 09:53:49;;;;;;;;;;;;;;;28.83;75.56;99839.56;5095347;28;19916;-57
2023/08/01 09:56:17;;;;;;;;;;;;;;;27.95;85.00;99832.28;5093621;28;19912;-57
2023/08/01 09:58:44;;;;;;;;;;;;;;;28.52;79.96;99838.16;5093662;28;19923;-58
2023/08/01 10:01:10;;;;;;;;;;;;;;;28.76;78.71;99843.66;5093483;28;19952;-58
2023/08/01 10:03:36;;;;;;;;;;;;;;;30.00;74.50;99833.59;5093676;28;19912;-56
2023/08/01 10:06:02;;;;;;;;;;;;;;;30.39;66.90;99849.59;5093388;28;19927;-58
2023/08/01 10:08:29;;;;;;;;;;;;;;;31.21;66.96;99832.63;5093730;28;19923;-58
2023/08/01 10:10:56;;;;;;;;;;;;;;;31.64;59.74;99841.81;5094918;28;19924;-57
2023/08/01 10:13:23;;;;;;;;;;;;;;;31.44;59.12;99860.38;5095194;28;20044;-57
2023/08/01 10:15:51;;;;;;;;;;;;;;;29.60;66.70;99843.50;5101060;28;19917;-55
2023/08/01 10:18:17;;;;;;;;;;;;;;;29.97;61.72;99856.31;5097741;28;19944;-57
2023/08/01 10:20:44;;;;;;;;;;;;;;;30.56;60.15;99857.50;5095033;28;19912;-58
2023/08/01 10:23:10;;;;;;;;;;;;;;;30.15;61.04;99851.34;5095213;28;19984;-58
2023/08/01 10:25:37;;;;;;;;;;;;;;;29.52;63.49;99858.22;5098464;28;19916;-57
2023/08/01 10:28:04;;;;;;;;;;;;;;;30.60;63.38;99857.59;5094908;28;19917;-58
2023/08/01 10:30:30;;;;;;;;;;;;;;;33.20;52.17;99846.50;5094027;28;19954;-57
2023/08/01 10:32:56;;;;;;;;;;;;;;;34.17;50.42;99858.00;5094547;28;19916;-55
2023/08/01 10:35:32;;;;;;;;;;;;;;;33.80;49.90;99861.53;5094887;28;19955;-59
2023/08/01 10:38:03;;;;;;;;;;;;;;;32.57;50.26;99868.88;5104288;28;19928;-57
2023/08/01 10:40:33;;;;;;;;;;;;;;;31.20;51.44;99856.69;5089833;28;20219;-58
2023/08/01 10:42:58;;;;;;;;;;;;;;;29.93;56.32;99871.94;5094937;28;19920;-56
2023/08/01 10:45:24;;;;;;;;;;;;;;;28.96;59.48;99865.16;5077120;28;19976;-58
2023/08/01 10:47:50;;;;;;;;;;;;;;;30.43;57.62;99876.09;5110908;28;19916;-58
2023/08/01 10:50:17;;;;;;;;;;;;;;;30.41;57.02;99875.63;5093836;28;19917;-59
2023/08/01 10:52:43;;;;;;;;;;;;;;;31.06;53.83;99876.47;5094686;28;20010;-59
2023/08/01 10:55:09;;;;;;;;;;;;;;;32.72;50.60;99873.44;5079229;28;19916;-56
2023/08/01 10:57:35;;;;;;;;;;;;;;;35.54;44.33;99876.88;5105702;28;19931;-58
2023/08/01 11:00:03;;;;;;;;;;;;;;;34.16;45.92;99873.84;5094463;28;19912;-58
2023/08/01 11:02:30;;;;;;;;;;;;;;;34.79;43.52;99894.63;5076980;28;19916;-59
2023/08/01 11:05:02;;;;;;;;;;;;;;;34.09;45.41;99876.53;5110451;28;19947;-58
2023/08/01 11:07:28;;;;;;;;;;;;;;;34.31;44.54;99874.78;5079606;28;19951;-59
2023/08/01 11:10:10;;;;;;;;;;;;;;;34.78;44.11;99876.38;5101488;28;19916;-57
2023/08/01 11:12:42;;;;;;;;;;;;;;;37.15;39.60;99890.66;5094786;28;19932;-59
2023/08/01 11:15:09;;;;;;;;;;;;;;;36.43;39.11;99900.59;5094392;28;19942;-59
2023/08/01 11:17:35;;;;;;;;;;;;;;;34.72;40.82;99882.28;5095812;28;19921;-59
2023/08/01 11:20:05;;;;;;;;;;;;;;;37.38;38.38;99883.84;5094788;28;19920;-59
2023/08/01 11:22:32;;;;;;;;;;;;;;;35.50;39.92;99901.06;5094443;28;20161;-59
2023/08/01 11:24:58;;;;;;;;;;;;;;;34.84;40.50;99885.97;5094611;28;19917;-59
2023/08/01 11:27:23;;;;;;;;;;;;;;;33.36;43.25;99891.44;5094252;28;19916;-57
2023/08/01 11:29:49;;;;;;;;;;;;;;;33.80;46.31;99886.50;5094596;28;19952;-58
2023/08/01 11:32:15;;;;;;;;;;;;;;;32.96;49.32;99893.63;5103250;28;19939;-59
2023/08/01 11:34:43;;;;;;;;;;;;;;;34.45;45.84;99890.75;5094427;28;19978;-60
2023/08/01 11:37:09;;;;;;;;;;;;;;;36.67;39.46;99911.38;5102707;28;19984;-59
2023/08/01 11:39:35;;;;;;;;;;;;;;;34.50;40.68;99891.63;5099108;28;19980;-59
2023/08/01 11:42:00;;;;;;;;;;;;;;;34.20;43.72;99912.69;5100002;28;19912;-58
2023/08/01 11:44:26;;;;;;;;;;;;;;;33.80;42.36;99900.34;5094465;28;19916;-59
2023/08/01 11:46:52;;;;;;;;;;;;;;;33.04;43.18;99906.44;5099483;28;19920;-59
2023/08/01 11:49:17;;;;;;;;;;;;;;;31.96;44.30;99910.00;5095150;28;19951;-58
2023/08/01 11:51:44;;;;;;;;;;;;;;;33.24;43.57;99899.97;5094042;28;19916;-59
2023/08/01 11:54:11;;;;;;;;;;;;;;;32.41;45.14;99908.50;5094120;28;19917;-58
2023/08/01 11:56:38;;;;;;;;;;;;;;;31.78;46.59;99901.34;5096563;28;19917;-58
2023/08/01 11:59:14;;;;;;;;;;;;;;;35.13;43.50;99927.84;5104939;28;19920;-58
2023/08/01 12:01:44;;;;;;;;;;;;;;;34.90;40.98;99912.19;5103867;28;19920;-61
2023/08/01 12:04:10;;;;;;;;;;;;;;;33.88;42.09;99921.44;5102429;28;19947;-59
2023/08/01 12:06:38;;;;;;;;;;;;;;;32.68;45.31;99916.88;5097953;28;19916;-57
2023/08/01 12:09:11;;;;;;;;;;;;;;;32.36;46.60;99903.28;5105720;28;19917;-59
2023/08/01 12:11:37;;;;;;;;;;;;;;;31.69;48.63;99902.31;5101265;28;19983;-57
2023/08/01 12:14:10;;;;;;;;;;;;;;;31.94;47.53;99924.16;5097374;28;19919;-57
2023/08/01 12:16:35;;;;;;;;;;;;;;;30.51;49.69;99917.66;5097854;28;19943;-58
2023/08/01 12:19:01;;;;;;;;;;;;;;;29.65;52.13;99916.81;5102487;28;19991;-57
2023/08/01 12:21:26;;;;;;;;;;;;;;;31.06;52.16;99926.16;5097501;28;19917;-56
2023/08/01 12:23:52;;;;;;;;;;;;;;;30.91;50.10;99922.25;5097309;28;19920;-60
2023/08/01 12:26:17;;;;;;;;;;;;;;;31.07;50.31;99933.28;5097537;28;19916;-58
2023/08/01 12:28:43;;;;;;;;;;;;;;;31.82;47.82;99938.16;5098532;28;19920;-59
2023/08/01 12:31:08;;;;;;;;;;;;;;;30.54;51.22;99937.03;5097310;28;19916;-59
2023/08/01 12:33:33;;;;;;;;;;;;;;;31.08;49.97;99931.31;5097038;28;19927;-57
2023/08/01 12:35:59;;;;;;;;;;;;;;;32.50;49.16;99937.91;5097117;28;19916;-55